Jepson Prairie Reserve, California Weather observations

Data are for 10 minute period ending at time listed.
 Day   Time   Solar   Ave.   Ave.  Ave.  Vector  Max.   Baro.   Total    
  of    of     Rad.   Air    Rel.  Wind   Wind   Wind  Press.  Precip.   
Year   Day            Temp.  Hum.  Speed  Dir.   Gust                    
2015   (PST)  Kw/m2    F      %     mph   deg.    mph    mb.     in.     
-------------------------------------------------------------------------
 240    0:10   0.00   71.7    55   14.3   203    16.4   1010.8    0.00 
 240    0:20   0.00   72.2    52   15.1   203    18.9   1010.8    0.00 
 240    0:30   0.00   72.3    51   15.0   201    18.5   1010.5    0.00 
 240    0:40   0.00   72.2    51   15.4   203    18.5   1010.5    0.00 
 240    0:50   0.00   72.2    51   15.1   203    17.9   1010.5    0.00 
 240    1:00   0.00   72.0    51   15.0   202    18.1   1010.5    0.00 
 240    1:10   0.00   71.9    52   15.9   203    18.4   1010.2    0.00 
 240    1:20   0.00   71.9    53   14.9   207    17.6   1010.2    0.00 
 240    1:30   0.00   72.2    52   15.6   210    19.3   1010.5    0.00 
 240    1:40   0.00   72.0    53   13.6   206    17.0   1010.5    0.00 
 240    1:50   0.00   71.2    59   13.3   209    17.0   1010.5    0.00 
 240    2:00   0.00   71.0    58   13.1   211    16.3   1010.5    0.00 
 240    2:10   0.00   70.8    58   12.2   212    15.6   1010.5    0.00 
 240    2:20   0.00   70.6    59   13.9   210    16.1   1010.5    0.00 
 240    2:30   0.00   70.6    58   12.2   211    15.9   1010.5    0.00 
 240    2:40   0.00   70.4    59   13.2   207    17.6   1010.2    0.00 
 240    2:50   0.00   70.6    58   14.1   208    17.0   1010.2    0.00 
 240    3:00   0.00   70.3    59   13.2   206    16.7   1010.2    0.00 
 240    3:10   0.00   70.1    59   14.5   205    20.2   1010.2    0.00 
 240    3:20   0.00   69.9    59   12.5   206    17.4   1010.2    0.00 
 240    3:30   0.00   69.3    61   10.4   200    15.0   1010.2    0.00 
 240    3:40   0.00   68.7    62    8.8   196    11.2   1010.2    0.00 
 240    3:50   0.00   69.0    61    9.7   205    13.2   1010.2    0.00 
 240    4:00   0.00   69.1    62   11.0   203    13.2   1010.2    0.00 
 240    4:10   0.00   68.9    63   12.3   207    16.0   1010.2    0.00 
 240    4:20   0.00   68.9    64   12.1   208    14.9   1010.2    0.00 
 240    4:30   0.00   68.5    64   12.1   209    14.5   1009.8    0.00 
 240    4:40   0.00   68.1    64    8.6   205    11.2   1009.8    0.00 
 240    4:50   0.00   67.8    65    9.7   206    14.7   1009.8    0.00 
 240    5:00   0.00   68.1    64   11.0   205    13.7   1009.8    0.00 
 240    5:10   0.00   68.1    64   12.1   202    15.3   1009.8    0.00 
 240    5:20   0.00   68.1    64   10.6   205    14.3   1009.8    0.00 
 240    5:30   0.01   67.5    66   10.0   208    12.6   1009.8    0.00 
 240    5:40   0.01   67.3    67    9.3   205    12.7   1009.8    0.00 
 240    5:50   0.02   67.4    66    8.5   205    10.6   1009.8    0.00 
 240    6:00   0.04   68.2    65    9.8   204    17.5   1009.8    0.00 
 240    6:10   0.07   70.0    61   10.1   200    17.4   1009.8    0.00 
 240    6:20   0.12   70.9    60    9.6   210    12.3   1009.8    0.00 
 240    6:30   0.16   71.7    59   10.4   210    12.9   1010.2    0.00 
 240    6:40   0.21   72.7    58   11.3   218    14.1   1010.2    0.00 
 240    6:50   0.24   73.8    56   10.8   213    13.4   1010.2    0.00 
 240    7:00   0.28   75.3    52   10.7   210    12.9   1010.2    0.00 
 240    7:10   0.27   76.7    47    9.6   213    12.3   1010.2    0.00 
 240    7:20   0.25   77.8    44    9.2   211    11.5   1010.2    0.00 
 240    7:30   0.34   78.4    47   10.7   213    14.5   1010.2    0.00 
 240    7:40   0.35   79.2    45   10.7   216    13.4   1010.2    0.00 
 240    7:50   0.33   79.8    42    9.0   231    12.9   1010.2    0.00 
 240    8:00   0.41   81.0    40    8.5   216    11.3   1009.8    0.00 
 240    8:10   0.44   81.7    40    8.8   200    12.1   1009.8    0.00 
 240    8:20   0.43   82.3    39    7.8   208    10.4   1009.8    0.00 
 240    8:30   0.46   83.2    37    8.3   223    12.4   1009.8    0.00 
 240    8:40   0.52   83.3    37    8.6   229    11.7   1009.8    0.00 
 240    8:50   0.54   84.1    35   10.3   223    13.7   1009.8    0.00 
 240    9:00   0.52   84.6    34    9.9   224    12.4   1009.8    0.00 
 240    9:10   0.55   85.1    33    9.8   212    13.0   1009.8    0.00 
 240    9:20   0.57   86.1    32    8.5   214    11.4   1010.2    0.00 
 240    9:30   0.62   86.7    32    8.3   214    12.6   1010.2    0.00 
 240    9:40   0.62   87.6    31    8.0   214    12.8   1010.2    0.00 
 240    9:50   0.69   88.3    30    6.9   207    11.5   1009.8    0.00 
 240   10:00   0.73   88.7    30    7.3   217    11.0   1009.8    0.00 
 240   10:10   0.72   89.2    29    5.6   231    10.2   1009.8    0.00 
 240   10:20   0.72   89.6    28    7.1   231    10.6   1010.2    0.00 
 240   10:30   0.78   90.8    27    6.7   216    10.8   1010.2    0.00 
 240   10:40   0.68   91.5    27    6.3   223    11.0   1009.8    0.00 
 240   10:50   0.61   91.4    27    7.3   224    10.2   1009.8    0.00 
 240   11:00   0.58   92.2    26    7.0   211    12.7   1009.8    0.00 
 240   11:10   0.59   92.4    26    7.6   220    11.7   1009.8    0.00 
 240   11:20   0.65   92.3    26    7.4   224    12.1   1009.5    0.00 
 240   11:30   0.86   93.2    25    8.5   234    12.9   1009.5    0.00 
 240   11:40   0.83   94.1    24    8.2   227    13.7   1009.5    0.00 
 240   11:50   0.62   94.3    24    9.2   231    13.8   1009.5    0.00 
 240   12:00   0.94   95.4    23   10.4   235    16.9   1009.5    0.00 
 240   12:10   0.78   95.5    23   10.2   239    17.2   1009.1    0.00 
 240   12:20   0.71   95.4    22   10.8   230    16.2   1009.1    0.00 
 240   12:30   0.91   96.8    22   12.2   230    18.5   1009.1    0.00 
 240   12:40   0.75   97.0    21   14.9   234    20.3   1009.1    0.00 
 240   12:50   0.89   97.3    21   14.8   235    21.5   1009.1    0.00 
 240   13:00   0.86   97.3    21   16.2   234    23.2   1009.1    0.00 
 240   13:10   0.75   96.6    21   13.4   233    19.8   1009.1    0.00 
 240   13:20   0.83   97.1    20   14.4   229    21.4   1008.8    0.00 
 240   13:30   0.81   97.6    20   16.0   223    21.7   1008.8    0.00 
 240   13:40   0.82   97.8    20   15.9   230    22.2   1008.5    0.00 
 240   13:50   0.79   97.5    20   14.6   236    19.7   1008.5    0.00 
 240   14:00   0.81   98.5    19   16.7   230    24.5   1008.1    0.00 
 240   14:10   0.73   98.9    18   20.8   230    30.2   1008.1    0.00 
 240   14:20   0.77   99.2    17   21.1   213    26.0   1007.8    0.00 
 240   14:30   0.68   98.5    19   16.6   217    23.8   1007.8    0.00 
 240   14:40   0.63   97.8    20   15.3   222    25.6   1007.8    0.00 
 240   14:50   0.46   97.6    20   14.4   223    21.0   1007.8    0.00 
 240   15:00   0.29   97.1    18   15.7   215    24.5   1007.8    0.00 
 240   15:10   0.25   96.7    18   15.9   215    23.5   1007.8    0.00 
 240   15:20   0.24   96.6    19   15.2   216    22.9   1007.5    0.00 
 240   15:30   0.21   96.4    19   15.3   217    21.9   1007.5    0.00 
 240   15:40   0.21   96.2    19   15.8   225    22.4   1007.5    0.00 
 240   15:50   0.21   95.9    21   15.9   229    21.9   1007.5    0.00 
 240   16:00   0.29   95.0    24   17.2   229    23.8   1007.5    0.00 
 240   16:10   0.42   95.3    23   18.5   227    23.8   1007.5    0.00 
 240   16:20   0.32   95.0    23   16.5   230    21.7   1007.5    0.00 
 240   16:30   0.15   93.4    24   17.6   227    22.5   1007.5    0.00 
 240   16:40   0.12   92.3    26   19.0   224    26.0   1007.5    0.00 
 240   16:50   0.10   91.0    28   22.3   226    27.5   1007.5    0.00 
 240   17:00   0.10   89.6    30   22.7   224    28.3   1007.1    0.00 
 240   17:10   0.10   88.2    32   23.4   226    28.8   1007.1    0.00 
 240   17:20   0.10   87.2    34   21.4   222    27.5   1007.1    0.00 
 240   17:30   0.09   86.7    35   20.7   222    27.5   1007.1    0.00 
 240   17:40   0.08   86.2    35   21.4   224    27.1   1007.1    0.00 
 240   17:50   0.07   85.1    34   21.0   220    27.5   1007.1    0.00 
 240   18:00   0.06   84.1    36   19.5   219    24.6   1007.1    0.00 
 240   18:10   0.06   83.0    38   19.2   214    23.5   1007.1    0.00 
 240   18:20   0.04   82.1    40   16.5   211    21.9   1007.1    0.00 
 240   18:30   0.03   81.1    43   13.9   202    19.7   1007.1    0.00 
 240   18:40   0.01   80.0    45   12.6   208    16.4   1007.1    0.00 
 240   18:50   0.00   79.0    47   15.8   206    23.2   1007.1    0.00 
 240   19:00   0.00   78.5    48   18.3   209    24.5   1007.1    0.00 
 240   19:10   0.00   77.9    50   16.2   202    24.8   1007.5    0.00 
 240   19:20   0.00   76.9    52   17.0   206    22.1   1007.5    0.00 
 240   19:30   0.00   76.1    54   19.2   213    24.8   1007.8    0.00 
 240   19:40   0.00   75.4    56   20.8   213    26.2   1007.5    0.00 
 240   19:50   0.00   74.8    59   22.1   211    28.4   1007.5    0.00 
 240   20:00   0.00   74.4    60   22.6   213    28.9   1007.8    0.00 
 240   20:10   0.00   74.0    62   24.3   213    31.0   1007.8    0.00 
 240   20:20   0.00   73.6    63   23.6   212    29.2   1007.8    0.00 
 240   20:30   0.00   73.3    64   21.8   214    27.3   1008.1    0.00 
 240   20:40   0.00   72.9    64   19.5   211    25.9   1008.1    0.00 
 240   20:50   0.00   72.5    64   17.3   211    22.1   1008.1    0.00 
 240   21:00   0.00   72.0    66   15.9   211    20.5   1008.5    0.00 
 240   21:10   0.00   71.4    68   16.0   208    20.4   1008.1    0.00 
 240   21:20   0.00   70.8    70   13.9   207    18.4   1008.5    0.00 
 240   21:30   0.00   70.8    71   13.1   209    19.6   1008.5    0.00 
 240   21:40   0.00   70.8    71   10.6   200    17.5   1008.8    0.00 
 240   21:50   0.00   70.6    72   12.8   205    20.8   1008.8    0.00 
 240   22:00   0.00   70.4    73   14.1   208    22.1   1008.8    0.00 
 240   22:10   0.00   69.8    75   17.5   209    22.4   1008.5    0.00 
 240   22:20   0.00   69.4    77   21.2   210    27.0   1008.5    0.00 
 240   22:30   0.00   69.0    79   21.4   206    28.1   1008.5    0.00 
 240   22:40   0.00   68.6    80   19.1   201    24.7   1008.5    0.00 
 240   22:50   0.00   68.5    81   18.9   203    23.6   1008.8    0.00 
 240   23:00   0.00   68.1    81   17.1   199    22.7   1009.1    0.00 
 240   23:10   0.00   68.1    81   14.8   189    21.2   1009.5    0.00 
 240   23:20   0.00   68.1    81   11.9   178    16.0   1009.5    0.00 
 240   23:30   0.00   68.1    81   14.3   187    19.0   1009.8    0.00 
 240   23:40   0.00   68.0    81   14.4   188    18.8   1009.8    0.00 
 240   23:50   0.00   67.7    82   15.0   191    20.0   1009.8    0.00 
 241    0:00   0.00   67.5    83   14.3   186    18.4   1010.2    0.00 

Return to Jepson Prairie Reserve graphs page.


Western Regional Climate Center,wrcc@dri.edu